createdAt,value
2019-02-20T00:01:19.742Z,45.87
2019-02-20T00:03:46.499Z,47.37
2019-02-20T00:06:13.227Z,46.73
2019-02-20T00:08:40.376Z,49.20
2019-02-20T00:11:07.090Z,52.00
2019-02-20T00:13:33.891Z,49.33
2019-02-20T00:16:01.145Z,50.63
2019-02-20T00:18:28.214Z,54.03
2019-02-20T00:20:54.932Z,45.27
2019-02-20T00:23:21.548Z,65.50
2019-02-20T00:25:48.182Z,54.00
2019-02-20T00:28:14.990Z,55.30
2019-02-20T00:30:41.783Z,48.77
2019-02-20T00:33:08.460Z,49.13
2019-02-20T00:35:35.294Z,51.63
2019-02-20T00:38:02.470Z,50.07
2019-02-20T00:40:29.576Z,62.57
2019-02-20T00:42:56.436Z,61.90
2019-02-20T00:45:23.260Z,58.70
2019-02-20T00:47:50.396Z,53.57
2019-02-20T00:50:17.429Z,59.83
2019-02-20T00:52:49.821Z,64.43
2019-02-20T00:55:12.493Z,50.87
2019-02-20T00:57:39.296Z,53.27
2019-02-20T01:00:06.138Z,57.37
2019-02-20T01:02:32.988Z,55.07
2019-02-20T01:05:00.418Z,53.33
2019-02-20T01:07:27.411Z,66.20
2019-02-20T01:09:54.109Z,55.60
2019-02-20T01:12:20.759Z,53.53
2019-02-20T01:14:47.559Z,58.70
2019-02-20T01:17:14.343Z,66.07
2019-02-20T01:19:41.029Z,48.73
2019-02-20T01:22:07.704Z,55.67
2019-02-20T01:24:34.342Z,55.40
2019-02-20T01:27:01.082Z,62.33
2019-02-20T01:29:27.837Z,57.47
2019-02-20T01:31:54.555Z,62.90
2019-02-20T01:34:21.720Z,61.43
2019-02-20T01:36:48.453Z,57.73
2019-02-20T01:39:15.192Z,59.13
2019-02-20T01:41:43.566Z,57.73
2019-02-20T01:44:10.205Z,54.33
2019-02-20T01:46:36.848Z,55.73
2019-02-20T01:49:04.382Z,55.90
2019-02-20T01:51:31.350Z,74.13
2019-02-20T01:53:58.397Z,64.57
2019-02-20T01:56:25.093Z,64.23
2019-02-20T01:58:58.487Z,66.07
2019-02-20T02:01:26.648Z,67.20
2019-02-20T02:03:53.532Z,59.33
2019-02-20T02:06:20.478Z,61.87
2019-02-20T02:08:47.634Z,62.00
2019-02-20T02:11:14.345Z,55.00
2019-02-20T02:13:41.308Z,59.40
2019-02-20T02:16:08.806Z,69.77
2019-02-20T02:18:36.494Z,60.97
2019-02-20T02:21:03.382Z,48.00
2019-02-20T02:23:30.113Z,69.23
2019-02-20T02:25:56.823Z,73.97
2019-02-20T02:28:23.533Z,59.37
2019-02-20T02:30:50.320Z,65.13
2019-02-20T02:33:17.041Z,56.77
2019-02-20T02:35:43.788Z,54.37
2019-02-20T02:38:10.533Z,61.13
2019-02-20T02:40:37.253Z,61.60
2019-02-20T02:43:04.044Z,52.97
2019-02-20T02:45:30.723Z,62.70
2019-02-20T02:47:57.452Z,69.53
2019-02-20T02:50:24.181Z,76.60
2019-02-20T02:52:50.938Z,64.03
2019-02-20T02:55:17.656Z,72.20
2019-02-20T02:57:44.369Z,64.23
2019-02-20T03:00:11.061Z,68.00
2019-02-20T03:02:37.772Z,67.23
2019-02-20T03:05:04.575Z,72.53
2019-02-20T03:07:31.466Z,71.37
2019-02-20T03:09:58.270Z,65.30
2019-02-20T03:12:25.128Z,73.00
2019-02-20T03:14:51.951Z,72.67
2019-02-20T03:17:18.795Z,82.50
2019-02-20T03:19:45.628Z,74.77
2019-02-20T03:22:12.367Z,94.60
2019-02-20T03:24:39.057Z,75.83
2019-02-20T03:27:05.754Z,59.60
2019-02-20T03:29:32.598Z,71.17
2019-02-20T03:31:59.629Z,67.90
2019-02-20T03:34:26.324Z,68.63
2019-02-20T03:36:52.984Z,68.60
2019-02-20T03:39:19.763Z,81.33
2019-02-20T03:41:46.594Z,77.70
2019-02-20T03:44:13.445Z,70.43
2019-02-20T03:46:40.376Z,72.80
2019-02-20T03:49:07.225Z,74.80
2019-02-20T03:51:33.956Z,65.57
2019-02-20T03:54:00.707Z,75.60
2019-02-20T03:56:27.547Z,79.43
2019-02-20T03:58:54.382Z,76.60
2019-02-20T04:01:21.115Z,68.20
2019-02-20T04:03:47.874Z,69.20
2019-02-20T04:06:14.723Z,72.53
2019-02-20T04:08:41.534Z,61.53
2019-02-20T04:11:08.282Z,62.07
2019-02-20T04:13:35.132Z,65.83
2019-02-20T04:16:01.857Z,73.40
2019-02-20T04:18:28.611Z,67.30
2019-02-20T04:20:55.453Z,71.53
2019-02-20T04:23:22.184Z,82.23
2019-02-20T04:25:48.880Z,81.73
2019-02-20T04:28:15.570Z,85.57
2019-02-20T04:30:42.404Z,71.17
2019-02-20T04:33:09.247Z,76.53
2019-02-20T04:35:35.937Z,64.23
2019-02-20T04:38:02.719Z,69.67
2019-02-20T04:40:29.454Z,67.47
2019-02-20T04:42:58.400Z,77.47
2019-02-20T04:45:24.558Z,66.77
2019-02-20T04:47:51.525Z,63.93
2019-02-20T04:50:18.373Z,67.23
2019-02-20T04:52:45.211Z,72.53
2019-02-20T04:55:12.054Z,68.27
2019-02-20T04:57:38.743Z,62.00
2019-02-20T05:00:05.621Z,55.23
2019-02-20T05:02:32.483Z,64.63
2019-02-20T05:04:59.215Z,66.83
2019-02-20T05:07:26.050Z,54.30
2019-02-20T05:09:52.904Z,55.40
2019-02-20T05:12:19.626Z,54.40
2019-02-20T05:14:46.622Z,51.17
2019-02-20T05:17:13.421Z,49.17
2019-02-20T05:19:40.158Z,44.90
2019-02-20T05:22:07.008Z,41.13
2019-02-20T05:24:33.846Z,41.63
2019-02-20T05:27:00.691Z,52.87
2019-02-20T05:29:27.535Z,53.80
2019-02-20T05:31:54.231Z,72.73
2019-02-20T05:34:21.002Z,60.60
2019-02-20T05:36:47.722Z,52.70
2019-02-20T05:39:14.428Z,69.17
2019-02-20T05:41:41.075Z,53.17
2019-02-20T05:44:07.811Z,44.63
2019-02-20T05:46:34.544Z,49.67
2019-02-20T05:49:01.225Z,56.63
2019-02-20T05:51:27.863Z,59.60
2019-02-20T05:53:54.592Z,58.97
2019-02-20T05:56:21.295Z,52.03
2019-02-20T05:58:48.020Z,61.80
2019-02-20T06:01:14.738Z,62.07
2019-02-20T06:03:41.423Z,46.10
2019-02-20T06:06:08.049Z,46.90
2019-02-20T06:08:34.725Z,60.37
2019-02-20T06:11:01.482Z,45.57
2019-02-20T06:13:28.210Z,52.20
2019-02-20T06:15:54.906Z,53.23
2019-02-20T06:18:21.588Z,50.33
2019-02-20T06:20:48.347Z,50.87
2019-02-20T06:23:15.063Z,56.23
2019-02-20T06:25:41.701Z,48.03
2019-02-20T06:28:08.455Z,61.47
2019-02-20T06:30:35.295Z,55.13
2019-02-20T06:33:02.045Z,52.30
2019-02-20T06:35:28.873Z,64.07
2019-02-20T06:37:55.717Z,53.43
2019-02-20T06:40:22.442Z,60.37
2019-02-20T06:42:49.190Z,65.83
2019-02-20T06:45:16.130Z,59.00
2019-02-20T06:47:42.868Z,55.07
2019-02-20T06:50:09.500Z,65.30
2019-02-20T06:52:36.141Z,61.77
2019-02-20T06:55:02.884Z,50.67
2019-02-20T06:57:29.620Z,53.97
2019-02-20T06:59:56.517Z,68.73
2019-02-20T07:02:23.300Z,65.47
2019-02-20T07:04:50.040Z,60.10
2019-02-20T07:07:16.788Z,57.43
2019-02-20T07:09:43.530Z,55.87
2019-02-20T07:12:10.379Z,56.03
2019-02-20T07:14:37.101Z,48.97
2019-02-20T07:17:03.806Z,47.67
2019-02-20T07:19:30.659Z,46.47
2019-02-20T07:21:57.380Z,51.83
2019-02-20T07:24:24.068Z,50.77
2019-02-20T07:26:50.718Z,53.33
2019-02-20T07:29:17.455Z,50.40
2019-02-20T07:31:44.140Z,52.13
2019-02-20T07:34:10.794Z,56.00
2019-02-20T07:36:37.491Z,43.73
2019-02-20T07:39:04.411Z,55.60
2019-02-20T07:41:31.233Z,49.50
2019-02-20T07:43:58.077Z,53.83
2019-02-20T07:46:24.956Z,52.93
2019-02-20T07:48:51.600Z,53.67
2019-02-20T07:51:18.295Z,48.50
2019-02-20T07:53:44.910Z,49.70
2019-02-20T07:56:11.530Z,44.23
2019-02-20T07:58:38.273Z,45.17
2019-02-20T08:01:05.058Z,41.07
2019-02-20T08:03:31.995Z,42.43
2019-02-20T08:05:58.691Z,53.63
2019-02-20T08:08:25.347Z,43.73
2019-02-20T08:10:52.044Z,48.27
2019-02-20T08:13:18.879Z,52.20
2019-02-20T08:15:45.603Z,45.37
2019-02-20T08:18:12.335Z,44.40
2019-02-20T08:20:39.060Z,46.03
2019-02-20T08:23:06.286Z,36.77
2019-02-20T08:25:33.061Z,44.53
2019-02-20T08:27:59.783Z,40.10
2019-02-20T08:30:26.473Z,52.33
2019-02-20T08:32:53.460Z,42.50
2019-02-20T08:35:20.431Z,48.70
2019-02-20T08:37:47.289Z,47.30
2019-02-20T08:40:14.056Z,40.73
2019-02-20T08:42:40.796Z,39.30
2019-02-20T08:45:07.436Z,38.13
2019-02-20T08:47:34.156Z,40.53
2019-02-20T08:50:00.983Z,34.63
2019-02-20T08:52:27.813Z,40.70
2019-02-20T08:54:54.653Z,33.00
2019-02-20T08:57:22.197Z,41.70
2019-02-20T08:59:48.994Z,39.40
2019-02-20T09:02:16.160Z,39.50
2019-02-20T09:04:42.892Z,37.97
2019-02-20T09:07:09.825Z,46.70
2019-02-20T09:09:36.481Z,44.90
2019-02-20T09:12:03.203Z,49.23
2019-02-20T09:14:30.099Z,41.07
2019-02-20T09:16:56.826Z,43.03
2019-02-20T09:19:23.566Z,62.60
2019-02-20T09:21:51.108Z,47.43
2019-02-20T09:24:17.946Z,50.63
2019-02-20T09:26:44.717Z,42.17
2019-02-20T09:29:11.485Z,48.60
2019-02-20T09:31:38.202Z,47.70
2019-02-20T09:34:04.907Z,41.03
2019-02-20T09:36:31.609Z,40.57
2019-02-20T09:38:58.513Z,40.57
2019-02-20T09:41:25.244Z,47.60
2019-02-20T09:43:52.088Z,49.93
2019-02-20T09:46:18.826Z,51.87
2019-02-20T09:48:45.564Z,48.53
2019-02-20T09:51:12.306Z,41.23
2019-02-20T09:53:39.062Z,44.40
2019-02-20T09:56:05.755Z,49.83
2019-02-20T09:58:32.434Z,66.67
2019-02-20T10:00:59.130Z,42.57
2019-02-20T10:03:25.899Z,53.43
2019-02-20T10:05:52.646Z,45.47
2019-02-20T10:08:19.353Z,54.27
2019-02-20T10:10:46.118Z,47.57
2019-02-20T10:13:13.083Z,50.97
2019-02-20T10:15:40.003Z,52.77
2019-02-20T10:18:07.646Z,56.27
2019-02-20T10:20:34.619Z,48.13
2019-02-20T10:23:01.324Z,51.13
2019-02-20T10:25:28.099Z,51.83
2019-02-20T10:27:54.939Z,56.50
2019-02-20T10:30:21.779Z,62.50
2019-02-20T10:32:48.561Z,43.10
2019-02-20T10:35:15.363Z,45.33
2019-02-20T10:37:42.055Z,40.93
2019-02-20T10:40:11.005Z,33.53
2019-02-20T10:42:38.098Z,42.47
2019-02-20T10:45:04.789Z,34.53
2019-02-20T10:47:31.518Z,41.40
2019-02-20T10:49:58.245Z,38.20
2019-02-20T10:52:24.998Z,58.70
2019-02-20T10:54:57.525Z,44.03
2019-02-20T10:57:20.147Z,37.90
2019-02-20T10:59:46.874Z,43.63
2019-02-20T11:02:13.541Z,46.33
2019-02-20T11:04:40.250Z,39.23
2019-02-20T11:07:06.972Z,38.10
2019-02-20T11:09:33.659Z,41.85
2019-02-20T11:12:00.405Z,42.15
2019-02-20T11:14:27.139Z,51.95
2019-02-20T11:16:53.874Z,64.10
2019-02-20T11:19:20.497Z,65.92
2019-02-20T11:21:47.252Z,45.07
2019-02-20T11:24:14.173Z,55.20
2019-02-20T11:26:50.442Z,46.87
2019-02-20T11:29:09.412Z,56.67
2019-02-20T11:31:36.211Z,49.37
2019-02-20T11:34:03.157Z,66.37
2019-02-20T11:36:29.885Z,50.23
2019-02-20T11:38:56.627Z,44.13
2019-02-20T11:41:23.459Z,45.47
2019-02-20T11:43:50.512Z,57.83
2019-02-20T11:46:17.254Z,43.73
2019-02-20T11:48:43.985Z,30.50
2019-02-20T11:51:10.674Z,44.27
2019-02-20T11:53:37.573Z,34.93
2019-02-20T11:56:04.371Z,31.13
2019-02-20T11:58:31.122Z,32.47
2019-02-20T12:00:57.957Z,35.97
2019-02-20T12:03:24.672Z,33.70
2019-02-20T12:05:52.432Z,32.17
2019-02-20T12:08:19.337Z,44.97
2019-02-20T12:10:46.181Z,35.17
2019-02-20T12:13:12.882Z,47.23
2019-02-20T12:15:39.654Z,34.43
2019-02-20T12:18:06.509Z,42.23
2019-02-20T12:20:33.444Z,30.93
2019-02-20T12:23:00.178Z,44.67
2019-02-20T12:25:27.034Z,33.60
2019-02-20T12:27:53.919Z,30.77
2019-02-20T12:30:20.872Z,29.23
2019-02-20T12:32:47.704Z,33.73
2019-02-20T12:35:14.429Z,35.60
2019-02-20T12:37:41.237Z,46.17
2019-02-20T12:40:07.971Z,47.33
2019-02-20T12:42:34.802Z,32.03
2019-02-20T12:45:01.457Z,31.63
2019-02-20T12:47:28.299Z,31.70
2019-02-20T12:49:55.132Z,45.87
2019-02-20T12:52:21.876Z,40.60
2019-02-20T12:54:48.666Z,32.57
2019-02-20T12:57:15.417Z,37.70
2019-02-20T12:59:42.146Z,36.80
2019-02-20T13:02:08.881Z,34.00
2019-02-20T13:04:35.608Z,34.53
2019-02-20T13:07:02.398Z,35.30
2019-02-20T13:09:29.155Z,40.13
2019-02-20T13:11:55.995Z,42.43
2019-02-20T13:14:22.844Z,40.03
2019-02-20T13:16:49.567Z,39.33
2019-02-20T13:19:16.367Z,54.93
2019-02-20T13:21:43.157Z,37.97
2019-02-20T13:24:09.886Z,31.33
2019-02-20T13:26:36.741Z,35.23
2019-02-20T13:29:03.485Z,51.87
2019-02-20T13:31:30.267Z,38.23
2019-02-20T13:33:57.044Z,34.27
2019-02-20T13:36:23.792Z,48.03
2019-02-20T13:38:50.520Z,42.63
2019-02-20T13:41:17.262Z,43.50
2019-02-20T13:43:44.105Z,32.70
2019-02-20T13:46:10.961Z,41.83
2019-02-20T13:48:37.685Z,41.87
2019-02-20T13:51:04.384Z,35.47
2019-02-20T13:53:31.178Z,29.43
2019-02-20T13:55:58.022Z,42.90
2019-02-20T13:58:25.114Z,44.63
2019-02-20T14:00:51.893Z,47.20
2019-02-20T14:03:18.840Z,53.47
2019-02-20T14:05:45.782Z,42.13
2019-02-20T14:08:12.554Z,28.23
2019-02-20T14:10:39.240Z,35.03
2019-02-20T14:13:05.946Z,33.43
2019-02-20T14:15:32.646Z,26.90
2019-02-20T14:17:59.641Z,29.77
2019-02-20T14:20:26.442Z,34.60
2019-02-20T14:22:53.129Z,40.87
2019-02-20T14:25:19.865Z,54.87
2019-02-20T14:27:46.589Z,43.90
2019-02-20T14:30:13.309Z,42.97
2019-02-20T14:32:40.101Z,31.30
2019-02-20T14:35:06.836Z,34.43
2019-02-20T14:37:33.555Z,31.17
2019-02-20T14:40:00.286Z,34.40
2019-02-20T14:42:26.954Z,42.47
2019-02-20T14:44:53.709Z,37.57
2019-02-20T14:47:20.410Z,57.47
2019-02-20T14:49:47.198Z,42.27
2019-02-20T14:52:13.951Z,38.60
2019-02-20T14:54:40.677Z,34.40
2019-02-20T14:57:07.532Z,34.47
2019-02-20T14:59:34.571Z,53.00
2019-02-20T15:02:01.415Z,29.20
2019-02-20T15:04:28.419Z,49.40
2019-02-20T15:06:55.198Z,42.80
2019-02-20T15:09:22.231Z,40.47
2019-02-20T15:11:48.938Z,44.07
2019-02-20T15:14:16.141Z,34.07
2019-02-20T15:16:43.050Z,47.97
2019-02-20T15:19:09.768Z,33.37
2019-02-20T15:21:36.536Z,29.63
2019-02-20T15:24:03.257Z,33.40
2019-02-20T15:26:29.991Z,50.83
2019-02-20T15:28:56.759Z,31.07
2019-02-20T15:31:23.460Z,56.87
2019-02-20T15:33:50.224Z,33.07
2019-02-20T15:36:16.922Z,39.63
2019-02-20T15:38:43.828Z,34.07
2019-02-20T15:41:10.524Z,44.60
2019-02-20T15:43:37.252Z,34.73
2019-02-20T15:46:05.765Z,35.70
2019-02-20T15:48:32.386Z,26.67
2019-02-20T15:50:59.119Z,30.47
2019-02-20T15:53:25.853Z,35.40
2019-02-20T15:55:52.582Z,36.43
2019-02-20T15:58:19.599Z,43.17
2019-02-20T16:00:46.429Z,39.97
2019-02-20T16:03:13.270Z,39.97
2019-02-20T16:05:40.000Z,52.63
2019-02-20T16:08:07.357Z,41.83
2019-02-20T16:10:34.919Z,47.03
2019-02-20T16:13:01.841Z,37.40
2019-02-20T16:15:28.556Z,49.53
2019-02-20T16:17:55.552Z,55.50
2019-02-20T16:20:22.490Z,58.17
2019-02-20T16:22:49.332Z,47.67
2019-02-20T16:25:16.063Z,48.77
2019-02-20T16:27:47.067Z,46.07
2019-02-20T16:30:11.239Z,38.57
2019-02-20T16:32:37.934Z,31.20
2019-02-20T16:35:04.717Z,40.80
2019-02-20T16:37:31.744Z,42.07
2019-02-20T16:39:58.547Z,40.23
2019-02-20T16:42:25.295Z,44.70
2019-02-20T16:44:52.031Z,43.00
2019-02-20T16:47:18.768Z,55.67
2019-02-20T16:49:45.499Z,43.70
2019-02-20T16:52:12.209Z,41.10
2019-02-20T16:54:38.920Z,31.73
2019-02-20T16:57:05.822Z,41.97
2019-02-20T16:59:32.610Z,40.30
2019-02-20T17:01:59.332Z,40.50
2019-02-20T17:04:26.029Z,40.27
2019-02-20T17:06:52.778Z,39.70
2019-02-20T17:09:19.517Z,51.83
2019-02-20T17:11:46.297Z,40.80
2019-02-20T17:14:13.129Z,37.67
2019-02-20T17:16:40.160Z,39.43
2019-02-20T17:19:06.899Z,43.07
2019-02-20T17:21:33.726Z,42.20
2019-02-20T17:24:00.843Z,49.83
2019-02-20T17:26:27.630Z,49.53
2019-02-20T17:28:54.353Z,50.77
2019-02-20T17:31:21.067Z,87.80
2019-02-20T17:33:47.837Z,63.40
2019-02-20T17:36:14.842Z,50.60
2019-02-20T17:38:41.579Z,41.17
2019-02-20T17:41:08.376Z,39.10
2019-02-20T17:43:35.219Z,43.20
2019-02-20T17:46:01.946Z,59.00
2019-02-20T17:48:29.179Z,43.00
2019-02-20T17:50:56.069Z,45.80
2019-02-20T17:53:24.583Z,44.07
2019-02-20T17:55:51.592Z,55.37
2019-02-20T17:58:18.559Z,53.50
2019-02-20T18:00:45.240Z,46.33
2019-02-20T18:03:11.953Z,39.17
2019-02-20T18:05:38.839Z,47.93
2019-02-20T18:08:05.483Z,56.10
2019-02-20T18:10:32.324Z,51.70
2019-02-20T18:12:59.514Z,58.60
2019-02-20T18:15:26.418Z,72.40
2019-02-20T18:17:53.247Z,55.50
2019-02-20T18:20:20.309Z,71.53
2019-02-20T18:22:47.556Z,58.27
2019-02-20T18:25:14.638Z,64.67
2019-02-20T18:27:41.308Z,51.73
2019-02-20T18:30:08.080Z,55.70
2019-02-20T18:32:34.768Z,50.97
2019-02-20T18:35:01.553Z,71.47
2019-02-20T18:37:28.317Z,92.93
2019-02-20T18:39:55.267Z,67.60
2019-02-20T18:42:22.406Z,72.73
2019-02-20T18:44:49.233Z,53.33
2019-02-20T18:47:16.867Z,55.97
2019-02-20T18:49:43.652Z,53.40
2019-02-20T18:52:10.346Z,54.27
2019-02-20T18:54:37.045Z,72.53
2019-02-20T18:57:03.979Z,52.50
2019-02-20T18:59:30.767Z,61.37
2019-02-20T19:01:57.511Z,67.00
2019-02-20T19:04:24.334Z,73.63
2019-02-20T19:06:51.476Z,58.60
2019-02-20T19:09:18.280Z,55.37
2019-02-20T19:11:45.006Z,44.60
2019-02-20T19:14:11.736Z,46.50
2019-02-20T19:16:38.576Z,51.03
2019-02-20T19:19:05.315Z,57.97
2019-02-20T19:21:32.172Z,46.53
2019-02-20T19:23:58.883Z,57.10
2019-02-20T19:26:25.667Z,121.83
2019-02-20T19:28:52.370Z,59.70
2019-02-20T19:31:19.071Z,63.90
2019-02-20T19:33:45.888Z,62.10
2019-02-20T19:36:12.773Z,59.27
2019-02-20T19:38:39.543Z,56.57
2019-02-20T19:41:06.258Z,51.50
2019-02-20T19:43:32.965Z,50.80
2019-02-20T19:46:00.458Z,62.47
2019-02-20T19:48:27.288Z,67.40
2019-02-20T19:50:54.051Z,44.30
2019-02-20T19:53:20.783Z,67.83
2019-02-20T19:55:47.503Z,46.90
2019-02-20T19:58:15.082Z,58.33
2019-02-20T20:00:41.906Z,39.67
2019-02-20T20:03:08.692Z,53.43
2019-02-20T20:05:35.495Z,54.47
2019-02-20T20:08:02.656Z,42.23
2019-02-20T20:10:29.349Z,57.33
2019-02-20T20:13:06.552Z,47.03
2019-02-20T20:15:33.308Z,51.60
2019-02-20T20:18:00.626Z,65.50
2019-02-20T20:20:27.601Z,77.20
2019-02-20T20:22:54.775Z,45.40
2019-02-20T20:25:24.291Z,60.80
2019-02-20T20:27:50.703Z,57.67
2019-02-20T20:30:17.441Z,50.67
2019-02-20T20:32:53.839Z,45.93
2019-02-20T20:35:15.628Z,52.93
2019-02-20T20:37:42.492Z,48.87
2019-02-20T20:40:09.218Z,35.33
2019-02-20T20:42:38.561Z,42.43
2019-02-20T20:45:06.910Z,33.00
2019-02-20T20:47:34.587Z,35.90
2019-02-20T20:50:01.559Z,61.73
2019-02-20T20:52:28.626Z,47.63
2019-02-20T20:54:55.840Z,39.53
2019-02-20T20:57:22.947Z,65.23
2019-02-20T20:59:50.010Z,53.53
2019-02-20T21:02:16.828Z,44.87
2019-02-20T21:04:43.624Z,54.00
2019-02-20T21:07:10.338Z,52.67
2019-02-20T21:12:22.949Z,55.53
2019-02-20T21:14:49.945Z,50.97
2019-02-20T21:17:16.818Z,52.53
2019-02-20T21:19:43.479Z,55.37
2019-02-20T21:22:10.248Z,44.87
2019-02-20T21:24:37.012Z,47.60
2019-02-20T21:27:03.713Z,60.27
2019-02-20T21:29:30.579Z,57.27
2019-02-20T21:31:57.299Z,64.03
2019-02-20T21:34:25.514Z,60.37
2019-02-20T21:36:52.407Z,61.53
2019-02-20T21:39:19.110Z,66.17
2019-02-20T21:41:46.106Z,66.67
2019-02-20T21:44:12.932Z,70.77
2019-02-20T21:46:39.841Z,60.87
2019-02-20T21:49:06.541Z,63.50
2019-02-20T21:51:33.638Z,63.00
2019-02-20T21:54:01.209Z,73.87
2019-02-20T21:56:27.989Z,68.53
2019-02-20T21:58:54.903Z,72.50
2019-02-20T22:01:21.579Z,75.03
2019-02-20T22:03:48.200Z,71.67
2019-02-20T22:06:14.971Z,67.47
2019-02-20T22:08:41.623Z,75.50
2019-02-20T22:11:08.317Z,73.90
2019-02-20T22:13:35.079Z,65.60
2019-02-20T22:16:01.810Z,72.13
2019-02-20T22:18:28.938Z,96.20
2019-02-20T22:20:55.688Z,71.43
2019-02-20T22:23:22.441Z,104.87
2019-02-20T22:25:49.117Z,76.33
2019-02-20T22:28:15.765Z,87.63
2019-02-20T22:30:42.552Z,110.93
2019-02-20T22:33:09.242Z,82.73
2019-02-20T22:35:35.866Z,84.63
2019-02-20T22:38:02.571Z,91.87
2019-02-20T22:40:29.227Z,77.37
2019-02-20T22:42:56.072Z,87.00
2019-02-20T22:45:22.830Z,94.60
2019-02-20T22:47:50.614Z,83.97
2019-02-20T22:50:17.781Z,102.37
2019-02-20T22:52:45.254Z,87.70
2019-02-20T22:55:12.210Z,86.73
2019-02-20T22:57:38.972Z,86.87
2019-02-20T23:00:05.638Z,90.50
2019-02-20T23:02:32.347Z,81.00
2019-02-20T23:04:59.049Z,87.43
2019-02-20T23:07:25.963Z,94.63
2019-02-20T23:09:52.935Z,77.93
2019-02-20T23:12:19.701Z,91.10
2019-02-20T23:14:46.448Z,85.77
2019-02-20T23:17:13.139Z,90.00
2019-02-20T23:19:39.822Z,81.37
2019-02-20T23:22:06.512Z,85.47
2019-02-20T23:24:33.243Z,68.83
2019-02-20T23:26:59.959Z,85.87
2019-02-20T23:29:26.772Z,87.40
2019-02-20T23:31:53.490Z,78.20
2019-02-20T23:34:20.262Z,84.93
2019-02-20T23:36:47.201Z,78.23
2019-02-20T23:39:13.931Z,79.27
2019-02-20T23:41:40.670Z,76.37
2019-02-20T23:44:07.513Z,75.03
2019-02-20T23:46:34.259Z,66.37
2019-02-20T23:49:01.104Z,75.23
2019-02-20T23:51:27.841Z,72.03
2019-02-20T23:53:54.574Z,78.57
2019-02-20T23:56:21.414Z,75.13
2019-02-20T23:58:48.161Z,73.27
